Time;durP1;ratioP1;P1;durP2;ratioP2;P2;SDS_P1;SDS_P2;PMS_P1;PMS_P2;Temp;Humidity;BMP_temperature;BMP_pressure;BME280_temperature;BME280_humidity;BME280_pressure;Samples;Min_cycle;Max_cycle;Signal;HPM_P1;HPM_P2
2022/01/18 00:01:45;;;;;;;;;;;1.60;99.90;;;;;;4996750;28;19918;-89
2022/01/18 00:04:10;;;;;;;;;;;1.60;99.90;;;;;;4979238;28;19921;-89
2022/01/18 00:06:39;;;;;;;;;;;1.60;99.40;;;;;;4979069;28;19910;-89
2022/01/18 00:09:05;;;;;;;;;;;1.60;99.90;;;;;;4996659;28;19913;-89
2022/01/18 00:11:38;;;;;;;;;;;1.60;99.90;;;;;;4979153;28;20012;-88
2022/01/18 00:14:12;;;;;;;;;;;1.60;99.90;;;;;;4979504;28;19917;-88
2022/01/18 00:17:04;;;;;;;;;;;1.60;99.90;;;;;;4962235;28;22874;-89
2022/01/18 00:19:25;;;;;;;;;;;1.50;99.60;;;;;;4996025;28;19913;-89
2022/01/18 00:22:13;;;;;;;;;;;1.60;99.90;;;;;;4978933;28;20424;-88
2022/01/18 00:24:39;;;;;;;;;;;1.50;99.90;;;;;;4995567;28;19910;-89
2022/01/18 00:27:09;;;;;;;;;;;1.50;99.90;;;;;;4996317;28;20413;-87
2022/01/18 00:29:39;;;;;;;;;;;1.50;99.90;;;;;;4978633;28;20369;-86
2022/01/18 00:34:57;;;;;;;;;;;1.40;99.80;;;;;;4979936;28;20262;-89
2022/01/18 00:37:33;;;;;;;;;;;1.40;99.90;;;;;;4978437;28;19910;-89
2022/01/18 00:39:58;;;;;;;;;;;1.30;99.90;;;;;;4978386;28;20427;-89
2022/01/18 00:42:24;;;;;;;;;;;1.30;99.90;;;;;;4978620;28;19910;-89
2022/01/18 00:44:49;;;;;;;;;;;1.30;99.90;;;;;;4978736;28;19909;-88
2022/01/18 00:47:15;;;;;;;;;;;1.30;99.90;;;;;;4978602;28;19960;-89
2022/01/18 00:49:44;;;;;;;;;;;1.30;99.90;;;;;;4978380;28;20380;-89
2022/01/18 00:52:10;;;;;;;;;;;1.30;99.90;;;;;;4978372;28;19964;-89
2022/01/18 00:54:40;;;;;;;;;;;1.20;99.90;;;;;;4978206;28;20008;-88
2022/01/18 00:57:06;;;;;;;;;;;1.30;99.90;;;;;;4978788;28;19921;-89
2022/01/18 00:59:31;;;;;;;;;;;1.30;99.90;;;;;;4978096;28;19936;-89
2022/01/18 01:01:57;;;;;;;;;;;1.30;99.90;;;;;;4978568;28;19921;-88
2022/01/18 01:04:27;;;;;;;;;;;1.30;99.90;;;;;;4978278;28;20296;-89
2022/01/18 01:06:53;;;;;;;;;;;1.40;99.90;;;;;;4978008;28;20037;-90
2022/01/18 01:09:18;;;;;;;;;;;1.40;99.90;;;;;;4995908;28;19953;-89
2022/01/18 01:11:44;;;;;;;;;;;1.40;99.90;;;;;;4978026;28;20268;-89
2022/01/18 01:14:14;;;;;;;;;;;1.40;99.90;;;;;;4978065;28;19929;-89
2022/01/18 01:16:52;;;;;;;;;;;1.40;99.90;;;;;;4977860;28;19914;-89
2022/01/18 01:19:50;;;;;;;;;;;1.40;99.90;;;;;;4993664;28;19914;-89
2022/01/18 01:44:18;;;;;;;;;;;1.50;99.90;;;;;;4997075;28;19956;-88
2022/01/18 01:46:45;;;;;;;;;;;1.50;99.90;;;;;;4978436;28;19914;-89
2022/01/18 01:49:13;;;;;;;;;;;1.40;99.90;;;;;;4995522;28;19967;-88
2022/01/18 01:51:39;;;;;;;;;;;1.40;99.90;;;;;;4977872;28;19953;-88
2022/01/18 01:54:06;;;;;;;;;;;1.40;99.90;;;;;;4978050;28;19999;-89
2022/01/18 01:56:32;;;;;;;;;;;1.40;99.90;;;;;;5003199;28;20006;-89
2022/01/18 01:58:58;;;;;;;;;;;1.40;99.90;;;;;;5002672;28;19910;-89
2022/01/18 02:01:23;;;;;;;;;;;1.40;99.90;;;;;;4984215;28;20012;-89
2022/01/18 02:03:49;;;;;;;;;;;1.40;99.90;;;;;;4978061;28;20276;-89
2022/01/18 02:06:15;;;;;;;;;;;1.40;99.90;;;;;;4977412;28;19917;-89
2022/01/18 02:08:41;;;;;;;;;;;1.40;99.90;;;;;;4977407;28;19910;-89
2022/01/18 02:11:07;;;;;;;;;;;1.40;99.90;;;;;;4977326;28;20009;-89
2022/01/18 02:13:33;;;;;;;;;;;1.40;99.90;;;;;;4977177;28;20404;-89
2022/01/18 02:24:00;;;;;;;;;;;1.40;99.90;;;;;;4994469;28;19997;-89
2022/01/18 02:26:25;;;;;;;;;;;1.50;99.90;;;;;;4977025;28;19922;-89
2022/01/18 02:28:51;;;;;;;;;;;1.40;99.90;;;;;;4977101;28;19910;-89
2022/01/18 02:31:19;;;;;;;;;;;1.40;99.90;;;;;;4994255;28;19910;-89
2022/01/18 02:33:44;;;;;;;;;;;1.40;99.90;;;;;;4977228;28;20269;-88
2022/01/18 02:36:10;;;;;;;;;;;1.30;99.90;;;;;;4976907;28;19922;-89
2022/01/18 02:38:35;;;;;;;;;;;1.30;99.90;;;;;;4977013;28;19917;-89
2022/01/18 02:41:02;;;;;;;;;;;1.20;99.90;;;;;;4977025;28;19917;-89
2022/01/18 02:43:47;;;;;;;;;;;1.20;99.90;;;;;;4977491;28;20421;-89
2022/01/18 02:46:13;;;;;;;;;;;1.20;99.90;;;;;;4977973;28;20276;-89
2022/01/18 02:48:38;;;;;;;;;;;1.20;99.90;;;;;;4982936;28;19910;-88
2022/01/18 02:51:04;;;;;;;;;;;1.10;99.90;;;;;;4983518;28;19974;-88
2022/01/18 02:53:30;;;;;;;;;;;1.00;99.90;;;;;;4995957;28;19910;-89
2022/01/18 02:55:56;;;;;;;;;;;0.70;99.90;;;;;;4979772;28;19922;-88
2022/01/18 02:58:34;;;;;;;;;;;0.50;99.90;;;;;;5000544;28;20361;-89
2022/01/18 03:03:25;;;;;;;;;;;-0.30;99.90;;;;;;4999797;28;19910;-89
2022/01/18 03:05:51;;;;;;;;;;;-0.50;99.90;;;;;;4982304;28;19956;-88
2022/01/18 03:08:17;;;;;;;;;;;-0.50;99.90;;;;;;4988538;28;19918;-88
2022/01/18 03:10:43;;;;;;;;;;;-0.60;99.90;;;;;;4986262;28;19910;-87
2022/01/18 03:13:09;;;;;;;;;;;-0.70;99.90;;;;;;4982557;28;19917;-89
2022/01/18 03:15:35;;;;;;;;;;;-0.70;99.90;;;;;;4980341;28;19918;-88
2022/01/18 03:18:01;;;;;;;;;;;-0.70;99.90;;;;;;4981046;28;19921;-89
2022/01/18 03:20:26;;;;;;;;;;;-0.70;99.90;;;;;;4997411;28;19914;-88
2022/01/18 03:22:52;;;;;;;;;;;-0.70;99.90;;;;;;4980098;28;19918;-88
2022/01/18 03:28:06;;;;;;;;;;;-0.80;99.90;;;;;;4997251;28;19938;-89
2022/01/18 03:30:36;;;;;;;;;;;-0.90;99.90;;;;;;4979608;28;19961;-88
2022/01/18 03:33:03;;;;;;;;;;;-0.90;99.90;;;;;;4979744;28;20278;-88
2022/01/18 03:35:28;;;;;;;;;;;-0.90;99.90;;;;;;4979667;28;19925;-88
2022/01/18 03:37:54;;;;;;;;;;;-1.00;99.90;;;;;;4979605;28;19914;-88
2022/01/18 03:40:20;;;;;;;;;;;-1.00;99.90;;;;;;4979750;28;19910;-88
2022/01/18 03:42:46;;;;;;;;;;;-1.00;99.90;;;;;;4979734;28;19913;-88
2022/01/18 03:45:19;;;;;;;;;;;-1.00;99.90;;;;;;4997097;28;20008;-88
2022/01/18 03:47:45;;;;;;;;;;;-1.00;99.90;;;;;;4997220;28;20093;-89
2022/01/18 03:50:12;;;;;;;;;;;-1.00;99.90;;;;;;4979547;28;20333;-88
2022/01/18 03:52:38;;;;;;;;;;;-1.00;99.90;;;;;;4979302;28;19917;-88
2022/01/18 03:55:04;;;;;;;;;;;-1.00;99.90;;;;;;4978964;28;19921;-89
2022/01/18 03:57:29;;;;;;;;;;;-1.00;99.90;;;;;;4979305;28;19917;-89
2022/01/18 03:59:55;;;;;;;;;;;-1.00;99.90;;;;;;4979048;28;20357;-89
2022/01/18 04:02:20;;;;;;;;;;;-0.90;99.90;;;;;;4979709;28;19996;-88
2022/01/18 04:04:46;;;;;;;;;;;-0.90;99.90;;;;;;4996701;28;19910;-88
2022/01/18 04:07:11;;;;;;;;;;;-0.90;99.90;;;;;;4979082;28;19964;-88
2022/01/18 04:09:37;;;;;;;;;;;-0.90;99.90;;;;;;4979262;28;19910;-88
2022/01/18 04:12:03;;;;;;;;;;;-0.90;99.90;;;;;;4978955;28;20358;-88
2022/01/18 04:14:29;;;;;;;;;;;-1.10;99.90;;;;;;4978580;28;20040;-88
2022/01/18 04:27:59;;;;;;;;;;;-1.90;99.90;;;;;;4996606;28;20369;-88
2022/01/18 04:30:25;;;;;;;;;;;-2.00;99.90;;;;;;4996053;28;19913;-88
2022/01/18 04:32:50;;;;;;;;;;;-2.00;99.90;;;;;;4978620;28;20075;-88
2022/01/18 04:35:16;;;;;;;;;;;-1.80;99.90;;;;;;4978552;28;20413;-89
2022/01/18 04:37:42;;;;;;;;;;;-1.80;99.90;;;;;;4978569;28;20261;-88
2022/01/18 04:40:13;;;;;;;;;;;-1.70;99.90;;;;;;4978427;28;19910;-88
2022/01/18 04:43:03;;;;;;;;;;;-1.70;99.90;;;;;;4979034;28;19909;-88
2022/01/18 04:50:58;;;;;;;;;;;-1.70;99.90;;;;;;4996013;28;19917;-88
2022/01/18 04:53:26;;;;;;;;;;;-1.80;99.90;;;;;;4978130;28;19945;-88
2022/01/18 04:55:55;;;;;;;;;;;-2.00;99.90;;;;;;4978209;28;20064;-88
2022/01/18 04:58:24;;;;;;;;;;;-2.00;99.90;;;;;;4977760;28;20448;-88
2022/01/18 05:00:51;;;;;;;;;;;-2.10;99.90;;;;;;4978062;28;20365;-88
2022/01/18 05:03:17;;;;;;;;;;;-2.10;99.90;;;;;;4995320;28;19909;-88
2022/01/18 05:05:43;;;;;;;;;;;-2.10;95.10;;;;;;4977988;28;19916;-88
2022/01/18 05:08:13;;;;;;;;;;;-2.00;94.20;;;;;;4977905;28;19914;-88
2022/01/18 05:10:39;;;;;;;;;;;-2.00;94.10;;;;;;4977754;28;19910;-88
2022/01/18 05:13:17;;;;;;;;;;;-1.90;92.90;;;;;;4977775;28;19941;-88
2022/01/18 05:15:49;;;;;;;;;;;-1.90;92.20;;;;;;4977869;28;20001;-88
2022/01/18 05:21:16;;;;;;;;;;;-1.90;86.90;;;;;;4995029;28;20321;-88
2022/01/18 05:23:38;;;;;;;;;;;-1.90;87.10;;;;;;4994380;28;19910;-88
2022/01/18 05:26:03;;;;;;;;;;;-1.90;90.60;;;;;;4978232;28;19956;-87
2022/01/18 05:28:29;;;;;;;;;;;-1.80;91.00;;;;;;4977916;28;20269;-88
2022/01/18 05:30:54;;;;;;;;;;;-1.80;91.60;;;;;;4977362;28;20383;-88
2022/01/18 05:33:22;;;;;;;;;;;-1.80;82.50;;;;;;4978095;28;19914;-88
2022/01/18 05:35:48;;;;;;;;;;;-1.90;84.10;;;;;;4993615;28;19918;-88
2022/01/18 05:38:13;;;;;;;;;;;-1.90;83.60;;;;;;4977688;28;19971;-88
2022/01/18 05:40:39;;;;;;;;;;;-1.90;84.90;;;;;;4977893;28;19910;-88
2022/01/18 05:43:05;;;;;;;;;;;-1.90;83.10;;;;;;4977470;28;19914;-88
2022/01/18 05:45:30;;;;;;;;;;;-2.00;81.70;;;;;;4977465;28;20004;-88
2022/01/18 05:47:56;;;;;;;;;;;-2.00;84.40;;;;;;4976941;28;19909;-88
2022/01/18 05:50:22;;;;;;;;;;;-2.00;81.30;;;;;;4976867;28;19914;-88
2022/01/18 05:52:47;;;;;;;;;;;-2.00;82.60;;;;;;4976716;28;19964;-89
2022/01/18 05:55:13;;;;;;;;;;;-2.00;83.80;;;;;;4978082;28;19914;-88
2022/01/18 05:57:39;;;;;;;;;;;-2.00;82.30;;;;;;4976792;28;19917;-88
2022/01/18 06:00:08;;;;;;;;;;;-2.00;83.70;;;;;;4977121;28;19991;-88
2022/01/18 06:07:54;;;;;;;;;;;-2.00;81.40;;;;;;4958528;28;19973;-88
2022/01/18 06:10:19;;;;;;;;;;;-2.00;80.20;;;;;;4976237;28;20006;-88
2022/01/18 06:12:45;;;;;;;;;;;-1.90;82.20;;;;;;4976448;28;19913;-88
2022/01/18 06:15:11;;;;;;;;;;;-2.00;81.70;;;;;;4976581;28;20012;-89
2022/01/18 06:17:38;;;;;;;;;;;-1.90;82.60;;;;;;4976348;28;19941;-88
2022/01/18 06:20:04;;;;;;;;;;;-1.90;80.70;;;;;;4977254;28;19910;-88
2022/01/18 06:22:30;;;;;;;;;;;-1.90;83.40;;;;;;4976793;28;19917;-88
2022/01/18 06:24:55;;;;;;;;;;;-1.90;84.80;;;;;;4994415;28;19910;-88
2022/01/18 06:27:21;;;;;;;;;;;-1.90;87.10;;;;;;4977183;28;19964;-88
2022/01/18 06:29:46;;;;;;;;;;;-1.90;87.20;;;;;;4976370;28;19909;-89
2022/01/18 06:32:12;;;;;;;;;;;-1.90;88.80;;;;;;4979942;28;19914;-88
2022/01/18 06:34:37;;;;;;;;;;;-1.90;91.10;;;;;;4980459;28;19913;-88
2022/01/18 06:37:03;;;;;;;;;;;-1.90;91.30;;;;;;4980407;28;19981;-87
2022/01/18 06:39:29;;;;;;;;;;;-1.90;93.00;;;;;;4998039;28;20001;-87
2022/01/18 06:41:55;;;;;;;;;;;-1.90;94.30;;;;;;4997893;28;20004;-88
2022/01/18 06:44:20;;;;;;;;;;;-1.90;95.00;;;;;;4979917;28;20015;-88
2022/01/18 06:46:46;;;;;;;;;;;-2.00;94.70;;;;;;4980255;28;19914;-88
2022/01/18 06:49:11;;;;;;;;;;;-2.00;94.80;;;;;;4980130;28;20404;-87
2022/01/18 06:51:37;;;;;;;;;;;-2.00;95.50;;;;;;4980536;28;19949;-88
2022/01/18 06:54:03;;;;;;;;;;;-2.10;95.20;;;;;;4979847;28;19910;-88
2022/01/18 06:56:28;;;;;;;;;;;-2.00;95.30;;;;;;4979550;28;19964;-88
2022/01/18 06:58:54;;;;;;;;;;;-2.10;95.90;;;;;;4996750;28;20276;-88
2022/01/18 07:01:20;;;;;;;;;;;-2.10;96.60;;;;;;4997107;28;20400;-88
2022/01/18 07:03:48;;;;;;;;;;;-2.10;96.90;;;;;;4997137;28;19910;-88
2022/01/18 07:06:14;;;;;;;;;;;-2.10;97.00;;;;;;4979458;28;19910;-89
2022/01/18 07:08:40;;;;;;;;;;;-2.20;96.70;;;;;;4979386;28;19910;-88
2022/01/18 07:11:06;;;;;;;;;;;-2.10;97.20;;;;;;4979393;28;19914;-88
2022/01/18 07:13:31;;;;;;;;;;;-2.10;97.50;;;;;;4979688;28;20257;-88
2022/01/18 07:15:57;;;;;;;;;;;-2.10;97.70;;;;;;4979207;28;19918;-88
2022/01/18 07:18:22;;;;;;;;;;;-2.10;98.10;;;;;;4995496;28;19913;-87
2022/01/18 07:20:48;;;;;;;;;;;-2.00;98.20;;;;;;4995848;28;19914;-87
2022/01/18 07:23:13;;;;;;;;;;;-2.00;98.40;;;;;;4979804;28;19925;-88
2022/01/18 07:25:44;;;;;;;;;;;-2.00;98.20;;;;;;4979187;28;19980;-87
2022/01/18 07:28:11;;;;;;;;;;;-2.10;97.80;;;;;;4979409;28;19964;-88
2022/01/18 07:30:37;;;;;;;;;;;-2.00;98.00;;;;;;4979095;28;19910;-88
2022/01/18 07:33:04;;;;;;;;;;;-2.00;98.60;;;;;;4979365;28;19957;-87
2022/01/18 07:35:32;;;;;;;;;;;-1.90;97.70;;;;;;4996075;28;19922;-89
2022/01/18 07:37:59;;;;;;;;;;;-1.90;98.00;;;;;;4979000;28;19964;-89
2022/01/18 07:40:25;;;;;;;;;;;-1.90;96.90;;;;;;4978946;28;20112;-90
2022/01/18 07:42:50;;;;;;;;;;;-1.80;97.40;;;;;;4978613;28;19914;-88
2022/01/18 07:45:16;;;;;;;;;;;-1.80;94.80;;;;;;4979207;28;19917;-89
2022/01/18 07:47:41;;;;;;;;;;;-1.70;95.00;;;;;;4996546;28;19910;-89
2022/01/18 07:50:07;;;;;;;;;;;-1.70;92.20;;;;;;4978600;28;20423;-88
2022/01/18 07:52:35;;;;;;;;;;;-1.70;91.40;;;;;;4979761;28;19909;-88
2022/01/18 07:55:02;;;;;;;;;;;-1.70;91.90;;;;;;4979296;28;19910;-89
2022/01/18 07:57:27;;;;;;;;;;;-1.60;90.30;;;;;;4979644;28;20036;-89
2022/01/18 07:59:53;;;;;;;;;;;-1.60;90.40;;;;;;4985949;28;19933;-87
2022/01/18 08:02:19;;;;;;;;;;;-1.60;84.10;;;;;;4982840;28;19914;-88
2022/01/18 08:04:44;;;;;;;;;;;-1.50;88.10;;;;;;4980726;28;20123;-88
2022/01/18 08:07:10;;;;;;;;;;;-1.40;87.10;;;;;;4991205;28;20012;-88
2022/01/18 08:09:36;;;;;;;;;;;-1.40;87.20;;;;;;4978214;28;19997;-88
2022/01/18 08:12:02;;;;;;;;;;;-1.30;80.90;;;;;;4977499;28;19921;-88
2022/01/18 08:14:31;;;;;;;;;;;-1.40;82.50;;;;;;4975381;28;19929;-88
2022/01/18 08:17:02;;;;;;;;;;;-1.40;84.70;;;;;;4977298;28;19980;-89
2022/01/18 08:19:29;;;;;;;;;;;-1.30;82.30;;;;;;4993533;28;19992;-90
2022/01/18 08:21:54;;;;;;;;;;;-1.20;81.50;;;;;;4978337;28;20269;-89
2022/01/18 08:24:20;;;;;;;;;;;-1.20;82.50;;;;;;4995734;28;19921;-88
2022/01/18 08:26:46;;;;;;;;;;;-1.20;79.90;;;;;;4974249;28;19921;-89
2022/01/18 08:29:12;;;;;;;;;;;-1.10;81.60;;;;;;4975892;28;19911;-88
2022/01/18 08:31:40;;;;;;;;;;;-1.10;79.30;;;;;;4975236;28;19910;-89
2022/01/18 08:34:06;;;;;;;;;;;-1.10;79.20;;;;;;4974453;28;19914;-89
2022/01/18 08:36:32;;;;;;;;;;;-1.10;80.30;;;;;;4973447;28;20320;-88
2022/01/18 08:38:57;;;;;;;;;;;-1.10;80.40;;;;;;4974638;28;19925;-89
2022/01/18 08:41:23;;;;;;;;;;;-1.10;80.70;;;;;;4973321;28;19965;-88
2022/01/18 08:43:49;;;;;;;;;;;-1.10;81.80;;;;;;4958803;28;20448;-88
2022/01/18 08:46:15;;;;;;;;;;;-1.10;81.80;;;;;;4974356;28;19916;-88
2022/01/18 08:48:41;;;;;;;;;;;-1.20;80.70;;;;;;4974121;28;20012;-88
2022/01/18 08:51:08;;;;;;;;;;;-1.20;82.90;;;;;;4974298;28;20317;-87
2022/01/18 08:53:35;;;;;;;;;;;-1.20;82.70;;;;;;4974615;28;19930;-88
2022/01/18 08:56:01;;;;;;;;;;;-1.30;82.90;;;;;;4973915;28;19923;-87
2022/01/18 08:58:26;;;;;;;;;;;-1.30;83.50;;;;;;4974355;28;19917;-87
2022/01/18 09:00:52;;;;;;;;;;;-1.30;84.40;;;;;;4975781;28;19910;-88
2022/01/18 09:03:18;;;;;;;;;;;-1.40;84.10;;;;;;4975739;28;19910;-87
2022/01/18 09:05:44;;;;;;;;;;;-1.40;83.10;;;;;;4974163;28;20461;-88
2022/01/18 09:08:12;;;;;;;;;;;-1.30;84.50;;;;;;4973973;28;19914;-88
2022/01/18 09:10:37;;;;;;;;;;;-1.30;86.20;;;;;;4976033;28;20332;-88
2022/01/18 09:13:03;;;;;;;;;;;-1.10;84.40;;;;;;4973934;28;19957;-88
2022/01/18 09:15:29;;;;;;;;;;;-1.10;79.60;;;;;;4973940;28;19918;-88
2022/01/18 09:17:55;;;;;;;;;;;-1.10;79.20;;;;;;4973925;28;19993;-88
2022/01/18 09:20:20;;;;;;;;;;;-1.20;80.40;;;;;;4973906;28;19910;-89
2022/01/18 09:22:48;;;;;;;;;;;-1.20;79.70;;;;;;4973703;28;19910;-89
2022/01/18 09:25:19;;;;;;;;;;;-1.20;78.10;;;;;;4973678;28;19992;-89
2022/01/18 09:27:44;;;;;;;;;;;-1.30;77.20;;;;;;4973866;28;19910;-88
2022/01/18 09:30:12;;;;;;;;;;;-1.40;77.10;;;;;;4973983;28;20365;-89
2022/01/18 09:32:38;;;;;;;;;;;-1.40;79.50;;;;;;4973824;28;19921;-89
2022/01/18 09:35:06;;;;;;;;;;;-1.40;80.60;;;;;;4973981;28;20274;-88
2022/01/18 09:37:32;;;;;;;;;;;-1.30;82.50;;;;;;4975115;28;19918;-89
2022/01/18 09:39:57;;;;;;;;;;;-1.20;80.40;;;;;;4973234;28;19914;-88
2022/01/18 09:42:31;;;;;;;;;;;-1.20;77.60;;;;;;4957584;28;19997;-88
2022/01/18 09:44:57;;;;;;;;;;;-1.10;75.80;;;;;;4975177;28;19957;-89
2022/01/18 09:47:23;;;;;;;;;;;-1.10;72.80;;;;;;4973031;28;19914;-89
2022/01/18 09:49:49;;;;;;;;;;;-1.00;72.30;;;;;;4957291;28;19917;-89
2022/01/18 09:52:14;;;;;;;;;;;-0.90;71.20;;;;;;4973492;28;19914;-89
2022/01/18 09:54:41;;;;;;;;;;;-0.80;71.10;;;;;;4974653;28;19957;-89
2022/01/18 09:57:06;;;;;;;;;;;-0.80;70.80;;;;;;4973867;28;19929;-89
2022/01/18 09:59:32;;;;;;;;;;;-0.70;69.70;;;;;;4973693;28;20278;-89
2022/01/18 10:02:00;;;;;;;;;;;-0.60;70.20;;;;;;4974872;28;19949;-89
2022/01/18 10:04:31;;;;;;;;;;;-0.50;69.90;;;;;;4974909;28;19921;-89
2022/01/18 10:06:57;;;;;;;;;;;-0.50;66.50;;;;;;4989464;28;19921;-89
2022/01/18 10:09:26;;;;;;;;;;;-0.50;67.10;;;;;;4982081;28;20029;-90
2022/01/18 10:12:02;;;;;;;;;;;-0.50;68.90;;;;;;4984912;28;19914;-89
2022/01/18 10:14:30;;;;;;;;;;;-0.50;70.30;;;;;;4963207;28;19921;-88
2022/01/18 10:17:18;;;;;;;;;;;;;;;;;;;;;
2022/01/18 10:19:51;;;;;;;;;;;-0.50;72.80;;;;;;5000189;28;19920;-90
2022/01/18 10:22:40;;;;;;;;;;;-0.40;73.10;;;;;;4998154;28;19968;-91
2022/01/18 10:25:16;;;;;;;;;;;-0.50;74.00;;;;;;4980692;28;19914;-89
2022/01/18 10:27:43;;;;;;;;;;;-0.60;74.50;;;;;;4966688;28;19921;-92
2022/01/18 10:30:47;;;;;;;;;;;;;;;;;;;;;
2022/01/18 10:33:19;;;;;;;;;;;-0.80;73.70;;;;;;4986139;28;19913;-91
2022/01/18 10:36:06;;;;;;;;;;;-0.80;74.60;;;;;;4981232;28;20037;-91
2022/01/18 10:38:37;;;;;;;;;;;-0.80;75.20;;;;;;4986240;28;19918;-90
2022/01/18 10:41:21;;;;;;;;;;;-0.80;74.80;;;;;;4997632;28;19910;-89
2022/01/18 10:44:01;;;;;;;;;;;-0.80;76.10;;;;;;4977131;28;19918;-91
2022/01/18 10:46:39;;;;;;;;;;;-0.70;77.70;;;;;;4998597;28;19921;-90
2022/01/18 10:49:09;;;;;;;;;;;-0.90;80.80;;;;;;4985303;28;19921;-89
2022/01/18 10:51:43;;;;;;;;;;;-1.00;81.10;;;;;;4977698;28;19977;-91
2022/01/18 10:54:11;;;;;;;;;;;-1.00;79.90;;;;;;4987247;28;19914;-93
2022/01/18 10:56:37;;;;;;;;;;;-1.10;78.90;;;;;;4961988;28;19926;-91
2022/01/18 10:59:05;;;;;;;;;;;-1.00;77.50;;;;;;4967603;28;20013;-91
2022/01/18 11:01:32;;;;;;;;;;;-0.90;77.00;;;;;;4997929;28;19909;-92
2022/01/18 11:04:19;;;;;;;;;;;-0.80;78.10;;;;;;4997378;28;19909;-91
2022/01/18 11:07:00;;;;;;;;;;;-0.80;81.20;;;;;;4991708;28;19921;-92
2022/01/18 11:09:33;;;;;;;;;;;-0.90;84.20;;;;;;4978695;28;19910;-93
2022/01/18 11:12:02;;;;;;;;;;;-1.00;87.30;;;;;;4964840;28;20352;-92
2022/01/18 11:14:29;;;;;;;;;;;-1.10;86.90;;;;;;4968299;28;19927;-91
2022/01/18 11:16:57;;;;;;;;;;;-1.10;85.30;;;;;;4969517;28;19994;-92
2022/01/18 11:19:41;;;;;;;;;;;-1.10;79.80;;;;;;4967177;28;20234;-92
2022/01/18 11:22:12;;;;;;;;;;;-1.10;79.80;;;;;;4980966;28;19914;-92
2022/01/18 11:24:49;;;;;;;;;;;-1.00;80.30;;;;;;4963784;28;19955;-92
2022/01/18 11:27:18;;;;;;;;;;;-1.00;79.30;;;;;;4965889;28;19937;-91
2022/01/18 11:29:47;;;;;;;;;;;-0.90;79.10;;;;;;4969609;28;19910;-91
2022/01/18 11:32:23;;;;;;;;;;;-1.00;77.00;;;;;;4972325;28;19989;-91
2022/01/18 11:34:57;;;;;;;;;;;-1.00;76.70;;;;;;4980189;28;19965;-92
2022/01/18 11:37:27;;;;;;;;;;;-1.00;77.10;;;;;;4978594;28;20352;-91
2022/01/18 11:40:08;;;;;;;;;;;-1.00;77.90;;;;;;4980071;28;20011;-89
2022/01/18 11:42:58;;;;;;;;;;;-0.90;77.40;;;;;;4994707;28;19909;-91
2022/01/18 11:45:53;;;;;;;;;;;-0.80;77.90;;;;;;4968035;28;19910;-89
2022/01/18 11:48:23;;;;;;;;;;;-0.70;75.60;;;;;;4983787;28;19910;-89
2022/01/18 11:51:04;;;;;;;;;;;-0.70;73.50;;;;;;4979326;28;19910;-89
2022/01/18 11:54:06;;;;;;;;;;;-0.70;73.00;;;;;;4979448;28;20273;-89
2022/01/18 11:56:41;;;;;;;;;;;-0.80;73.20;;;;;;4977211;28;19922;-90
2022/01/18 11:59:12;;;;;;;;;;;-0.80;73.10;;;;;;4978857;28;19989;-90
2022/01/18 12:01:48;;;;;;;;;;;-0.70;72.10;;;;;;4979144;28;19910;-90
2022/01/18 12:04:36;;;;;;;;;;;-0.80;72.60;;;;;;4980023;28;19910;-91
2022/01/18 12:07:04;;;;;;;;;;;-0.70;71.80;;;;;;4978717;28;19909;-89
2022/01/18 12:09:43;;;;;;;;;;;-0.70;73.70;;;;;;4979012;28;19973;-89
2022/01/18 12:12:27;;;;;;;;;;;-0.70;73.20;;;;;;4997253;28;19909;-90
2022/01/18 12:14:52;;;;;;;;;;;-0.80;72.70;;;;;;4979148;28;20372;-89
2022/01/18 12:17:18;;;;;;;;;;;-0.90;73.80;;;;;;4979015;28;19918;-88
2022/01/18 12:19:47;;;;;;;;;;;-1.00;74.60;;;;;;4978659;28;19910;-89
2022/01/18 12:22:14;;;;;;;;;;;-1.10;76.30;;;;;;4977649;28;19914;-88
2022/01/18 12:24:46;;;;;;;;;;;-1.10;78.70;;;;;;4978542;28;19964;-89
2022/01/18 12:27:34;;;;;;;;;;;-1.20;81.60;;;;;;4995812;28;19913;-89
2022/01/18 12:30:27;;;;;;;;;;;-1.40;83.70;;;;;;4969262;28;19910;-91
2022/01/18 12:33:11;;;;;;;;;;;-1.40;84.60;;;;;;4972681;28;20084;-89
2022/01/18 12:35:37;;;;;;;;;;;-1.40;83.60;;;;;;4978728;28;19922;-91
2022/01/18 12:38:09;;;;;;;;;;;-1.50;83.80;;;;;;4994939;28;20302;-89
2022/01/18 12:40:37;;;;;;;;;;;-1.40;87.70;;;;;;4978712;28;19909;-90
2022/01/18 12:45:34;;;;;;;;;;;-1.50;87.20;;;;;;4996066;28;20372;-91
2022/01/18 12:48:12;;;;;;;;;;;-1.50;87.50;;;;;;4979498;28;19953;-91
2022/01/18 12:51:08;;;;;;;;;;;-1.50;86.20;;;;;;4978178;28;20266;-90
2022/01/18 12:53:54;;;;;;;;;;;-1.50;84.70;;;;;;4978952;28;19996;-90
2022/01/18 12:56:19;;;;;;;;;;;-1.40;84.20;;;;;;4994538;28;19921;-90
2022/01/18 12:58:48;;;;;;;;;;;-1.30;84.30;;;;;;4977990;28;19920;-89
2022/01/18 13:01:16;;;;;;;;;;;-1.30;82.40;;;;;;4976930;28;19909;-90
2022/01/18 13:03:53;;;;;;;;;;;-1.30;82.20;;;;;;4977937;28;19910;-90
2022/01/18 13:06:26;;;;;;;;;;;-1.20;80.80;;;;;;4962903;28;19921;-90
2022/01/18 13:09:00;;;;;;;;;;;-1.20;80.60;;;;;;4974144;28;19914;-88
2022/01/18 13:11:28;;;;;;;;;;;-1.20;80.40;;;;;;4993297;28;19977;-89
2022/01/18 13:14:01;;;;;;;;;;;-1.10;79.60;;;;;;4995204;28;20360;-89
2022/01/18 13:28:01;;;;;;;;;;;-1.10;82.60;;;;;;4995007;28;19914;-89
2022/01/18 13:30:24;;;;;;;;;;;-1.10;84.80;;;;;;4991185;28;19921;-90
2022/01/18 13:32:58;;;;;;;;;;;-1.20;90.90;;;;;;4977272;28;20346;-93
2022/01/18 13:35:26;;;;;;;;;;;-1.30;94.90;;;;;;4978293;28;19910;-93
2022/01/18 13:38:04;;;;;;;;;;;-1.60;99.00;;;;;;4969664;28;20328;-93
2022/01/18 13:40:36;;;;;;;;;;;-1.70;99.90;;;;;;4976791;28;19911;-92
2022/01/18 13:43:10;;;;;;;;;;;-1.80;99.90;;;;;;4962042;28;19921;-92
2022/01/18 13:45:38;;;;;;;;;;;-1.90;99.50;;;;;;4977347;28;19950;-90
2022/01/18 13:48:10;;;;;;;;;;;-1.90;99.40;;;;;;4978186;28;19913;-91
2022/01/18 13:50:45;;;;;;;;;;;-1.90;98.80;;;;;;4977560;28;19913;-90
2022/01/18 13:53:18;;;;;;;;;;;-1.80;97.90;;;;;;4981461;28;19921;-91
2022/01/18 13:55:48;;;;;;;;;;;-1.80;96.80;;;;;;4978138;28;19922;-90
2022/01/18 13:58:18;;;;;;;;;;;-1.80;95.20;;;;;;4979797;28;19948;-89
2022/01/18 14:00:43;;;;;;;;;;;-1.80;94.50;;;;;;4994433;28;20427;-91
2022/01/18 14:03:09;;;;;;;;;;;-1.80;92.10;;;;;;4983062;28;19953;-90
2022/01/18 14:05:46;;;;;;;;;;;-1.80;91.80;;;;;;4984452;28;20386;-91
2022/01/18 14:08:20;;;;;;;;;;;-1.70;91.80;;;;;;4981697;28;19925;-90
2022/01/18 14:10:48;;;;;;;;;;;-1.70;91.80;;;;;;4967770;28;20008;-91
2022/01/18 14:13:36;;;;;;;;;;;-1.70;89.60;;;;;;4977791;28;19964;-92
2022/01/18 14:16:23;;;;;;;;;;;-1.60;90.80;;;;;;4978307;28;19925;-89
2022/01/18 14:18:57;;;;;;;;;;;-1.60;88.90;;;;;;4993827;28;19910;-91
2022/01/18 14:21:51;;;;;;;;;;;-1.60;90.20;;;;;;4978345;28;20012;-90
2022/01/18 14:24:18;;;;;;;;;;;-1.70;90.80;;;;;;4976785;28;19918;-89
2022/01/18 14:26:53;;;;;;;;;;;-1.70;90.40;;;;;;4974511;28;19914;-88
2022/01/18 14:29:27;;;;;;;;;;;-1.70;91.00;;;;;;4958443;28;19910;-92
2022/01/18 14:32:09;;;;;;;;;;;-1.70;91.00;;;;;;4974591;28;19910;-90
2022/01/18 14:34:47;;;;;;;;;;;-1.70;90.20;;;;;;4975945;28;19961;-91
2022/01/18 14:37:13;;;;;;;;;;;-1.80;90.60;;;;;;4994987;28;19922;-89
2022/01/18 14:40:18;;;;;;;;;;;-1.80;90.60;;;;;;4976892;28;19914;-89
2022/01/18 14:42:50;;;;;;;;;;;-1.70;90.20;;;;;;4873705;29;19922;-89
2022/01/18 14:45:30;;;;;;;;;;;-1.70;88.60;;;;;;4896245;29;19915;-88
2022/01/18 14:47:57;;;;;;;;;;;-1.70;89.10;;;;;;4896185;29;19922;-87
2022/01/18 14:50:26;;;;;;;;;;;-1.70;88.50;;;;;;4877300;29;19916;-89
2022/01/18 14:52:55;;;;;;;;;;;-1.60;89.20;;;;;;4971187;28;19910;-89
2022/01/18 14:55:21;;;;;;;;;;;-1.60;87.80;;;;;;4980534;28;19922;-88
2022/01/18 14:57:48;;;;;;;;;;;-1.60;87.80;;;;;;4980818;28;20432;-89
2022/01/18 15:00:17;;;;;;;;;;;-1.60;88.70;;;;;;4980043;28;19910;-90
2022/01/18 15:02:43;;;;;;;;;;;-1.60;88.80;;;;;;4981007;28;19909;-89
2022/01/18 15:05:09;;;;;;;;;;;-1.50;89.10;;;;;;4979332;28;19917;-88
2022/01/18 15:07:37;;;;;;;;;;;-1.50;90.10;;;;;;4979640;28;19945;-89
2022/01/18 15:10:08;;;;;;;;;;;-1.50;90.60;;;;;;4979247;28;19909;-89
2022/01/18 15:12:35;;;;;;;;;;;-1.50;90.80;;;;;;4979800;28;20013;-89
2022/01/18 15:15:02;;;;;;;;;;;-1.50;92.00;;;;;;4979037;28;19913;-88
2022/01/18 15:17:27;;;;;;;;;;;-1.50;90.30;;;;;;4998349;28;19914;-90
2022/01/18 15:19:53;;;;;;;;;;;-1.50;89.20;;;;;;4998552;28;20273;-88
2022/01/18 15:22:24;;;;;;;;;;;-1.60;87.80;;;;;;4996392;28;19988;-89
2022/01/18 15:24:49;;;;;;;;;;;-1.60;86.70;;;;;;4996479;28;19915;-87
2022/01/18 15:27:16;;;;;;;;;;;-1.60;86.10;;;;;;4997410;28;20360;-88
2022/01/18 15:29:42;;;;;;;;;;;-1.60;86.10;;;;;;4997713;28;20506;-90
2022/01/18 15:32:08;;;;;;;;;;;-1.60;87.10;;;;;;4997636;28;20226;-89
2022/01/18 15:34:34;;;;;;;;;;;-1.60;87.30;;;;;;4997278;28;19909;-89
2022/01/18 15:37:06;;;;;;;;;;;-1.60;85.80;;;;;;4997908;28;19914;-88
2022/01/18 15:39:32;;;;;;;;;;;-1.60;86.60;;;;;;4999137;28;20013;-88
2022/01/18 15:41:58;;;;;;;;;;;-1.60;88.10;;;;;;4998595;28;20048;-88
2022/01/18 15:44:24;;;;;;;;;;;-1.60;89.10;;;;;;5016310;28;19984;-90
2022/01/18 15:46:49;;;;;;;;;;;-1.60;89.70;;;;;;4999385;28;20475;-89
2022/01/18 15:49:15;;;;;;;;;;;-1.60;89.40;;;;;;4999613;28;19913;-88
2022/01/18 15:51:58;;;;;;;;;;;-1.60;90.40;;;;;;4998970;28;19935;-90